sensor_id;sensor_type;location;lat;lon;timestamp;pressure;altitude;pressure_sealevel;temperature;humidity
9538;BME280;4807;48.024;11.726;2023-04-08T00:00:48;95014.78;;;3.69;85.13
9538;BME280;4807;48.024;11.726;2023-04-08T00:03:57;95012.78;;;3.63;85.27
9538;BME280;4807;48.024;11.726;2023-04-08T00:07:05;95008.34;;;3.63;85.13
9538;BME280;4807;48.024;11.726;2023-04-08T00:10:13;95010.09;;;3.55;85.86
9538;BME280;4807;48.024;11.726;2023-04-08T00:13:24;95017.66;;;3.58;86.08
9538;BME280;4807;48.024;11.726;2023-04-08T00:16:33;95017.25;;;3.70;85.20
9538;BME280;4807;48.024;11.726;2023-04-08T00:19:41;95018.72;;;3.65;85.60
9538;BME280;4807;48.024;11.726;2023-04-08T00:22:50;95016.69;;;3.59;86.63
9538;BME280;4807;48.024;11.726;2023-04-08T00:25:58;95017.09;;;3.72;86.31
9538;BME280;4807;48.024;11.726;2023-04-08T00:29:08;95018.91;;;3.71;86.04
9538;BME280;4807;48.024;11.726;2023-04-08T00:32:17;95021.41;;;3.73;86.70
9538;BME280;4807;48.024;11.726;2023-04-08T00:35:25;95025.91;;;3.55;86.70
9538;BME280;4807;48.024;11.726;2023-04-08T00:38:34;95029.69;;;3.60;86.55
9538;BME280;4807;48.024;11.726;2023-04-08T00:41:42;95031.66;;;3.58;86.50
9538;BME280;4807;48.024;11.726;2023-04-08T00:44:53;95028.38;;;3.56;86.98
9538;BME280;4807;48.024;11.726;2023-04-08T00:48:03;95029.81;;;3.51;86.83
9538;BME280;4807;48.024;11.726;2023-04-08T00:51:12;95030.53;;;3.61;86.63
9538;BME280;4807;48.024;11.726;2023-04-08T00:54:20;95030.38;;;3.62;86.76
9538;BME280;4807;48.024;11.726;2023-04-08T00:57:29;95036.22;;;3.48;86.84
9538;BME280;4807;48.024;11.726;2023-04-08T01:00:48;95027.84;;;3.53;86.59
9538;BME280;4807;48.024;11.726;2023-04-08T01:04:11;95029.34;;;3.55;86.77
9538;BME280;4807;48.024;11.726;2023-04-08T01:07:27;95026.69;;;3.47;86.62
9538;BME280;4807;48.024;11.726;2023-04-08T01:10:38;95029.41;;;3.37;87.18
9538;BME280;4807;48.024;11.726;2023-04-08T01:13:52;95027.59;;;3.38;86.77
9538;BME280;4807;48.024;11.726;2023-04-08T01:17:04;95028.78;;;3.43;86.54
9538;BME280;4807;48.024;11.726;2023-04-08T01:20:15;95028.53;;;3.29;88.02
9538;BME280;4807;48.024;11.726;2023-04-08T01:23:54;95022.94;;;3.58;87.18
9538;BME280;4807;48.024;11.726;2023-04-08T01:27:10;95014.38;;;3.56;87.44
9538;BME280;4807;48.024;11.726;2023-04-08T01:30:22;95023.47;;;3.35;87.71
9538;BME280;4807;48.024;11.726;2023-04-08T01:33:32;95027.66;;;3.46;87.70
9538;BME280;4807;48.024;11.726;2023-04-08T01:36:44;95025.59;;;3.32;87.21
9538;BME280;4807;48.024;11.726;2023-04-08T01:39:55;95021.16;;;3.32;87.72
9538;BME280;4807;48.024;11.726;2023-04-08T01:43:08;95026.25;;;3.34;87.93
9538;BME280;4807;48.024;11.726;2023-04-08T01:46:19;95030.13;;;3.22;88.20
9538;BME280;4807;48.024;11.726;2023-04-08T01:49:29;95028.06;;;3.08;87.87
9538;BME280;4807;48.024;11.726;2023-04-08T01:52:40;95033.59;;;3.22;87.71
9538;BME280;4807;48.024;11.726;2023-04-08T01:56:00;95031.81;;;3.05;87.99
9538;BME280;4807;48.024;11.726;2023-04-08T01:59:14;95028.72;;;3.10;88.15
9538;BME280;4807;48.024;11.726;2023-04-08T02:02:28;95036.41;;;3.03;88.36
9538;BME280;4807;48.024;11.726;2023-04-08T02:05:38;95032.78;;;3.04;89.01
9538;BME280;4807;48.024;11.726;2023-04-08T02:08:49;95028.44;;;2.95;88.53
9538;BME280;4807;48.024;11.726;2023-04-08T02:12:00;95031.66;;;3.06;87.86
9538;BME280;4807;48.024;11.726;2023-04-08T02:15:11;95026.75;;;3.12;88.37
9538;BME280;4807;48.024;11.726;2023-04-08T02:18:24;95035.78;;;3.09;87.89
9538;BME280;4807;48.024;11.726;2023-04-08T02:21:43;95033.19;;;2.91;88.92
9538;BME280;4807;48.024;11.726;2023-04-08T02:24:53;95034.75;;;3.02;88.16
9538;BME280;4807;48.024;11.726;2023-04-08T02:28:05;95032.06;;;2.94;88.29
9538;BME280;4807;48.024;11.726;2023-04-08T02:31:18;95028.44;;;2.95;88.12
9538;BME280;4807;48.024;11.726;2023-04-08T02:34:29;95034.84;;;3.18;87.55
9538;BME280;4807;48.024;11.726;2023-04-08T02:37:39;95036.41;;;3.03;87.62
9538;BME280;4807;48.024;11.726;2023-04-08T02:40:49;95040.09;;;2.92;88.62
9538;BME280;4807;48.024;11.726;2023-04-08T02:43:58;95032.66;;;3.05;87.37
9538;BME280;4807;48.024;11.726;2023-04-08T02:47:07;95028.84;;;3.00;88.08
9538;BME280;4807;48.024;11.726;2023-04-08T02:50:16;95027.31;;;2.97;88.35
9538;BME280;4807;48.024;11.726;2023-04-08T02:53:24;95018.00;;;3.03;88.06
9538;BME280;4807;48.024;11.726;2023-04-08T02:56:33;95019.44;;;2.97;88.04
9538;BME280;4807;48.024;11.726;2023-04-08T02:59:41;95021.34;;;3.13;87.68
9538;BME280;4807;48.024;11.726;2023-04-08T03:02:55;95027.00;;;3.00;88.53
9538;BME280;4807;48.024;11.726;2023-04-08T03:06:04;95028.56;;;3.11;88.29
9538;BME280;4807;48.024;11.726;2023-04-08T03:09:12;95029.31;;;3.21;88.28
9538;BME280;4807;48.024;11.726;2023-04-08T03:12:21;95024.19;;;3.20;88.09
9538;BME280;4807;48.024;11.726;2023-04-08T03:15:29;95040.03;;;3.28;89.00
9538;BME280;4807;48.024;11.726;2023-04-08T03:18:38;95037.00;;;3.40;87.95
9538;BME280;4807;48.024;11.726;2023-04-08T03:21:47;95038.69;;;3.50;88.06
9538;BME280;4807;48.024;11.726;2023-04-08T03:24:55;95034.38;;;3.40;87.82
9538;BME280;4807;48.024;11.726;2023-04-08T03:28:03;95037.41;;;3.54;87.56
9538;BME280;4807;48.024;11.726;2023-04-08T03:31:12;95034.63;;;3.55;87.34
9538;BME280;4807;48.024;11.726;2023-04-08T03:34:21;95041.94;;;3.69;87.05
9538;BME280;4807;48.024;11.726;2023-04-08T03:37:29;95038.63;;;3.67;86.83
9538;BME280;4807;48.024;11.726;2023-04-08T03:40:38;95037.84;;;3.75;86.56
9538;BME280;4807;48.024;11.726;2023-04-08T03:43:46;95037.50;;;3.70;86.71
9538;BME280;4807;48.024;11.726;2023-04-08T03:46:54;95038.38;;;3.78;86.62
9538;BME280;4807;48.024;11.726;2023-04-08T03:50:04;95037.00;;;3.74;86.98
9538;BME280;4807;48.024;11.726;2023-04-08T03:53:13;95048.91;;;3.78;86.47
9538;BME280;4807;48.024;11.726;2023-04-08T03:56:21;95044.75;;;3.76;86.29
9538;BME280;4807;48.024;11.726;2023-04-08T03:59:30;95051.69;;;3.77;86.29
9538;BME280;4807;48.024;11.726;2023-04-08T04:02:40;95053.06;;;3.89;86.34
9538;BME280;4807;48.024;11.726;2023-04-08T04:05:49;95057.66;;;3.87;86.47
9538;BME280;4807;48.024;11.726;2023-04-08T04:08:58;95055.16;;;3.77;86.66
9538;BME280;4807;48.024;11.726;2023-04-08T04:12:06;95062.50;;;3.74;86.98
9538;BME280;4807;48.024;11.726;2023-04-08T04:15:14;95060.88;;;3.73;86.67
9538;BME280;4807;48.024;11.726;2023-04-08T04:18:22;95067.78;;;3.74;87.08
9538;BME280;4807;48.024;11.726;2023-04-08T04:21:32;95056.94;;;3.77;86.32
9538;BME280;4807;48.024;11.726;2023-04-08T04:24:40;95068.72;;;3.99;85.99
9538;BME280;4807;48.024;11.726;2023-04-08T04:27:48;95064.69;;;3.78;86.32
9538;BME280;4807;48.024;11.726;2023-04-08T04:30:56;95064.88;;;3.85;86.28
9538;BME280;4807;48.024;11.726;2023-04-08T04:34:04;95065.09;;;3.92;86.49
9538;BME280;4807;48.024;11.726;2023-04-08T04:37:14;95068.16;;;4.13;85.59
9538;BME280;4807;48.024;11.726;2023-04-08T04:40:23;95067.81;;;4.16;85.54
9538;BME280;4807;48.024;11.726;2023-04-08T04:43:31;95077.59;;;4.32;84.97
9538;BME280;4807;48.024;11.726;2023-04-08T04:46:39;95070.22;;;4.43;84.32
9538;BME280;4807;48.024;11.726;2023-04-08T04:49:47;95082.88;;;4.32;84.69
9538;BME280;4807;48.024;11.726;2023-04-08T04:52:57;95086.19;;;4.34;85.38
9538;BME280;4807;48.024;11.726;2023-04-08T04:56:06;95086.59;;;4.63;83.95
9538;BME280;4807;48.024;11.726;2023-04-08T04:59:14;95090.41;;;4.69;83.04
9538;BME280;4807;48.024;11.726;2023-04-08T05:02:22;95088.25;;;4.64;84.07
9538;BME280;4807;48.024;11.726;2023-04-08T05:05:30;95090.91;;;4.72;83.79
9538;BME280;4807;48.024;11.726;2023-04-08T05:08:40;95097.38;;;4.86;83.44
9538;BME280;4807;48.024;11.726;2023-04-08T05:11:48;95102.47;;;4.95;82.66
9538;BME280;4807;48.024;11.726;2023-04-08T05:14:57;95101.31;;;4.90;83.14
9538;BME280;4807;48.024;11.726;2023-04-08T05:18:06;95099.34;;;4.92;83.80
9538;BME280;4807;48.024;11.726;2023-04-08T05:21:15;95096.38;;;4.95;83.88
9538;BME280;4807;48.024;11.726;2023-04-08T05:24:25;95099.84;;;5.04;83.62
9538;BME280;4807;48.024;11.726;2023-04-08T05:27:36;95096.38;;;5.11;83.03
9538;BME280;4807;48.024;11.726;2023-04-08T05:30:48;95102.84;;;5.17;82.98
9538;BME280;4807;48.024;11.726;2023-04-08T05:33:57;95106.47;;;5.24;83.18
9538;BME280;4807;48.024;11.726;2023-04-08T05:37:06;95101.88;;;5.34;82.50
9538;BME280;4807;48.024;11.726;2023-04-08T05:40:15;95103.69;;;5.25;83.47
9538;BME280;4807;48.024;11.726;2023-04-08T05:43:24;95100.22;;;5.41;82.09
9538;BME280;4807;48.024;11.726;2023-04-08T05:46:32;95099.53;;;5.63;81.83
9538;BME280;4807;48.024;11.726;2023-04-08T05:49:40;95099.19;;;5.74;81.08
9538;BME280;4807;48.024;11.726;2023-04-08T05:52:49;95103.97;;;5.71;81.19
9538;BME280;4807;48.024;11.726;2023-04-08T05:55:58;95099.00;;;5.76;81.19
9538;BME280;4807;48.024;11.726;2023-04-08T05:59:07;95102.00;;;5.89;80.06
9538;BME280;4807;48.024;11.726;2023-04-08T06:02:15;95106.47;;;5.89;80.45
9538;BME280;4807;48.024;11.726;2023-04-08T06:05:23;95109.09;;;5.89;80.53
9538;BME280;4807;48.024;11.726;2023-04-08T06:08:32;95111.06;;;5.95;80.68
9538;BME280;4807;48.024;11.726;2023-04-08T06:11:42;95106.41;;;6.05;79.73
9538;BME280;4807;48.024;11.726;2023-04-08T06:14:53;95105.44;;;6.06;79.76
9538;BME280;4807;48.024;11.726;2023-04-08T06:18:02;95111.00;;;6.19;79.51
9538;BME280;4807;48.024;11.726;2023-04-08T06:21:12;95110.97;;;6.27;78.82
9538;BME280;4807;48.024;11.726;2023-04-08T06:24:20;95105.22;;;6.24;79.80
9538;BME280;4807;48.024;11.726;2023-04-08T06:27:31;95115.94;;;6.30;78.69
9538;BME280;4807;48.024;11.726;2023-04-08T06:30:39;95113.94;;;6.32;79.43
9538;BME280;4807;48.024;11.726;2023-04-08T06:33:47;95106.94;;;6.47;78.32
9538;BME280;4807;48.024;11.726;2023-04-08T06:36:56;95111.94;;;6.34;78.77
9538;BME280;4807;48.024;11.726;2023-04-08T06:40:06;95110.66;;;6.30;79.20
9538;BME280;4807;48.024;11.726;2023-04-08T06:43:16;95121.16;;;6.46;78.91
9538;BME280;4807;48.024;11.726;2023-04-08T06:46:24;95120.81;;;6.49;78.05
9538;BME280;4807;48.024;11.726;2023-04-08T06:49:33;95121.00;;;6.48;79.13
9538;BME280;4807;48.024;11.726;2023-04-08T06:52:41;95124.16;;;6.35;79.38
9538;BME280;4807;48.024;11.726;2023-04-08T06:55:49;95128.75;;;6.41;79.61
9538;BME280;4807;48.024;11.726;2023-04-08T06:58:59;95131.31;;;6.27;79.24
9538;BME280;4807;48.024;11.726;2023-04-08T07:02:07;95127.56;;;6.05;80.38
9538;BME280;4807;48.024;11.726;2023-04-08T07:05:15;95135.19;;;5.92;81.68
9538;BME280;4807;48.024;11.726;2023-04-08T07:08:24;95132.34;;;5.85;82.47
9538;BME280;4807;48.024;11.726;2023-04-08T07:11:33;95126.91;;;5.87;82.65
9538;BME280;4807;48.024;11.726;2023-04-08T07:14:42;95131.53;;;6.01;82.66
9538;BME280;4807;48.024;11.726;2023-04-08T07:17:51;95123.25;;;6.12;82.01
9538;BME280;4807;48.024;11.726;2023-04-08T07:20:59;95139.63;;;6.16;82.19
9538;BME280;4807;48.024;11.726;2023-04-08T07:24:07;95143.06;;;6.24;83.42
9538;BME280;4807;48.024;11.726;2023-04-08T07:27:16;95135.75;;;6.26;82.29
9538;BME280;4807;48.024;11.726;2023-04-08T07:30:26;95142.09;;;6.09;82.18
9538;BME280;4807;48.024;11.726;2023-04-08T07:33:34;95144.25;;;6.05;82.32
9538;BME280;4807;48.024;11.726;2023-04-08T07:36:42;95150.22;;;5.99;82.97
9538;BME280;4807;48.024;11.726;2023-04-08T07:39:50;95141.81;;;5.88;77.59
9538;BME280;4807;48.024;11.726;2023-04-08T07:42:58;95148.38;;;6.08;78.73
9538;BME280;4807;48.024;11.726;2023-04-08T07:46:08;95142.56;;;6.21;75.26
9538;BME280;4807;48.024;11.726;2023-04-08T07:49:16;95147.63;;;6.38;74.00
9538;BME280;4807;48.024;11.726;2023-04-08T07:52:25;95152.47;;;6.19;73.49
9538;BME280;4807;48.024;11.726;2023-04-08T07:55:33;95145.25;;;6.51;73.89
9538;BME280;4807;48.024;11.726;2023-04-08T07:58:41;95154.06;;;6.83;72.04
9538;BME280;4807;48.024;11.726;2023-04-08T08:01:51;95151.47;;;6.20;70.19
9538;BME280;4807;48.024;11.726;2023-04-08T08:05:02;95156.69;;;6.44;72.61
9538;BME280;4807;48.024;11.726;2023-04-08T08:08:10;95159.47;;;5.95;71.30
9538;BME280;4807;48.024;11.726;2023-04-08T08:11:18;95156.97;;;5.69;77.24
9538;BME280;4807;48.024;11.726;2023-04-08T08:14:27;95171.50;;;5.49;77.52
9538;BME280;4807;48.024;11.726;2023-04-08T08:17:36;95168.72;;;5.99;77.55
9538;BME280;4807;48.024;11.726;2023-04-08T08:20:44;95181.09;;;6.15;75.73
9538;BME280;4807;48.024;11.726;2023-04-08T08:23:53;95174.38;;;6.43;74.90
9538;BME280;4807;48.024;11.726;2023-04-08T08:27:02;95181.56;;;6.19;73.48
9538;BME280;4807;48.024;11.726;2023-04-08T08:30:12;95182.06;;;6.22;73.01
9538;BME280;4807;48.024;11.726;2023-04-08T08:33:22;95178.28;;;6.00;72.48
9538;BME280;4807;48.024;11.726;2023-04-08T08:36:30;95187.34;;;6.22;73.66
9538;BME280;4807;48.024;11.726;2023-04-08T08:39:40;95193.63;;;5.56;71.97
9538;BME280;4807;48.024;11.726;2023-04-08T08:42:49;95194.75;;;5.29;72.27
9538;BME280;4807;48.024;11.726;2023-04-08T08:45:58;95195.22;;;5.17;73.18
9538;BME280;4807;48.024;11.726;2023-04-08T08:49:08;95195.22;;;5.09;73.38
9538;BME280;4807;48.024;11.726;2023-04-08T08:52:16;95201.72;;;4.88;74.60
9538;BME280;4807;48.024;11.726;2023-04-08T08:55:25;95203.19;;;4.75;74.83
9538;BME280;4807;48.024;11.726;2023-04-08T08:58:53;95201.19;;;4.69;73.95
9538;BME280;4807;48.024;11.726;2023-04-08T09:02:01;95201.84;;;4.79;76.47
9538;BME280;4807;48.024;11.726;2023-04-08T09:05:10;95203.69;;;4.78;76.29
9538;BME280;4807;48.024;11.726;2023-04-08T09:08:27;95203.34;;;4.81;76.08
9538;BME280;4807;48.024;11.726;2023-04-08T09:11:36;95201.06;;;4.78;75.54
9538;BME280;4807;48.024;11.726;2023-04-08T09:14:45;95211.91;;;4.75;76.37
9538;BME280;4807;48.024;11.726;2023-04-08T09:17:54;95208.97;;;4.78;77.13
9538;BME280;4807;48.024;11.726;2023-04-08T09:21:05;95201.88;;;4.87;77.27
9538;BME280;4807;48.024;11.726;2023-04-08T09:24:28;95210.94;;;4.76;78.06
9538;BME280;4807;48.024;11.726;2023-04-08T09:27:36;95213.09;;;4.89;77.73
9538;BME280;4807;48.024;11.726;2023-04-08T09:30:45;95213.03;;;5.15;78.22
9538;BME280;4807;48.024;11.726;2023-04-08T09:33:56;95209.91;;;5.19;76.04
9538;BME280;4807;48.024;11.726;2023-04-08T09:37:05;95213.91;;;5.40;74.75
9538;BME280;4807;48.024;11.726;2023-04-08T09:40:14;95213.91;;;5.31;75.36
9538;BME280;4807;48.024;11.726;2023-04-08T09:43:25;95215.72;;;5.31;77.12
9538;BME280;4807;48.024;11.726;2023-04-08T09:46:43;95221.50;;;5.43;78.13
9538;BME280;4807;48.024;11.726;2023-04-08T09:49:57;95213.38;;;5.28;75.99
9538;BME280;4807;48.024;11.726;2023-04-08T09:53:18;95218.69;;;5.44;76.29
9538;BME280;4807;48.024;11.726;2023-04-08T09:56:39;95215.88;;;5.29;76.45
9538;BME280;4807;48.024;11.726;2023-04-08T09:59:59;95222.38;;;4.93;77.31
9538;BME280;4807;48.024;11.726;2023-04-08T10:03:26;95223.56;;;5.07;78.76
9538;BME280;4807;48.024;11.726;2023-04-08T10:06:38;95226.47;;;4.87;76.52
9538;BME280;4807;48.024;11.726;2023-04-08T10:09:49;95233.34;;;4.80;77.04
9538;BME280;4807;48.024;11.726;2023-04-08T10:12:58;95233.72;;;4.85;77.84
9538;BME280;4807;48.024;11.726;2023-04-08T10:16:21;95230.16;;;5.03;79.02
9538;BME280;4807;48.024;11.726;2023-04-08T10:19:38;95227.94;;;5.40;76.76
9538;BME280;4807;48.024;11.726;2023-04-08T10:22:47;95225.31;;;5.48;75.49
9538;BME280;4807;48.024;11.726;2023-04-08T10:25:57;95224.63;;;5.46;76.15
9538;BME280;4807;48.024;11.726;2023-04-08T10:29:38;95231.97;;;6.01;74.20
9538;BME280;4807;48.024;11.726;2023-04-08T10:32:46;95225.06;;;5.92;73.92
9538;BME280;4807;48.024;11.726;2023-04-08T10:36:08;95220.53;;;6.33;74.85
9538;BME280;4807;48.024;11.726;2023-04-08T10:39:17;95222.94;;;6.59;73.16
9538;BME280;4807;48.024;11.726;2023-04-08T10:42:28;95228.72;;;7.09;70.48
9538;BME280;4807;48.024;11.726;2023-04-08T10:45:37;95222.09;;;7.13;69.89
9538;BME280;4807;48.024;11.726;2023-04-08T10:48:58;95217.06;;;6.87;71.19
9538;BME280;4807;48.024;11.726;2023-04-08T10:52:07;95215.66;;;6.69;70.77
9538;BME280;4807;48.024;11.726;2023-04-08T10:55:21;95220.66;;;6.56;71.01
9538;BME280;4807;48.024;11.726;2023-04-08T10:58:31;95220.00;;;7.01;71.00
9538;BME280;4807;48.024;11.726;2023-04-08T11:01:40;95212.75;;;7.25;70.07
9538;BME280;4807;48.024;11.726;2023-04-08T11:04:53;95211.81;;;6.79;69.38
9538;BME280;4807;48.024;11.726;2023-04-08T11:08:02;95213.56;;;7.26;69.35
9538;BME280;4807;48.024;11.726;2023-04-08T11:11:10;95209.72;;;7.59;69.21
9538;BME280;4807;48.024;11.726;2023-04-08T11:14:20;95215.19;;;7.35;68.05
9538;BME280;4807;48.024;11.726;2023-04-08T11:17:29;95217.19;;;7.02;67.51
9538;BME280;4807;48.024;11.726;2023-04-08T11:20:37;95212.66;;;6.80;67.77
9538;BME280;4807;48.024;11.726;2023-04-08T11:23:48;95205.28;;;6.51;69.77
9538;BME280;4807;48.024;11.726;2023-04-08T11:26:58;95211.84;;;6.00;70.54
9538;BME280;4807;48.024;11.726;2023-04-08T11:30:09;95212.16;;;6.05;72.02
9538;BME280;4807;48.024;11.726;2023-04-08T11:33:18;95216.44;;;5.98;71.89
9538;BME280;4807;48.024;11.726;2023-04-08T11:36:28;95219.41;;;6.03;72.23
9538;BME280;4807;48.024;11.726;2023-04-08T11:39:41;95219.53;;;5.85;73.57
9538;BME280;4807;48.024;11.726;2023-04-08T11:42:51;95222.38;;;5.59;74.18
9538;BME280;4807;48.024;11.726;2023-04-08T11:46:08;95218.88;;;5.51;73.62
9538;BME280;4807;48.024;11.726;2023-04-08T11:49:18;95223.97;;;5.44;74.58
9538;BME280;4807;48.024;11.726;2023-04-08T11:52:44;95223.63;;;5.31;75.10
9538;BME280;4807;48.024;11.726;2023-04-08T11:55:53;95215.19;;;5.19;75.05
9538;BME280;4807;48.024;11.726;2023-04-08T11:59:02;95225.56;;;5.13;77.14
9538;BME280;4807;48.024;11.726;2023-04-08T12:02:12;95228.56;;;5.18;77.68
9538;BME280;4807;48.024;11.726;2023-04-08T12:05:20;95235.84;;;5.32;79.01
9538;BME280;4807;48.024;11.726;2023-04-08T12:08:28;95237.53;;;5.49;79.09
9538;BME280;4807;48.024;11.726;2023-04-08T12:11:38;95238.38;;;5.58;77.72
9538;BME280;4807;48.024;11.726;2023-04-08T12:14:46;95242.66;;;5.59;78.03
9538;BME280;4807;48.024;11.726;2023-04-08T12:17:56;95240.19;;;5.73;77.71
9538;BME280;4807;48.024;11.726;2023-04-08T12:21:04;95238.22;;;5.59;77.01
9538;BME280;4807;48.024;11.726;2023-04-08T12:24:13;95239.69;;;5.70;78.04
9538;BME280;4807;48.024;11.726;2023-04-08T12:27:22;95238.38;;;5.66;77.85
9538;BME280;4807;48.024;11.726;2023-04-08T12:30:30;95237.69;;;5.56;77.21
9538;BME280;4807;48.024;11.726;2023-04-08T12:33:40;95249.81;;;5.08;80.00
9538;BME280;4807;48.024;11.726;2023-04-08T12:36:48;95246.66;;;5.13;81.03
9538;BME280;4807;48.024;11.726;2023-04-08T12:39:56;95239.66;;;5.37;79.17
9538;BME280;4807;48.024;11.726;2023-04-08T12:43:05;95250.13;;;5.13;78.99
9538;BME280;4807;48.024;11.726;2023-04-08T12:46:14;95248.72;;;5.27;78.68
9538;BME280;4807;48.024;11.726;2023-04-08T12:49:24;95249.19;;;5.30;76.98
9538;BME280;4807;48.024;11.726;2023-04-08T12:52:33;95250.03;;;5.31;77.33
9538;BME280;4807;48.024;11.726;2023-04-08T12:55:42;95258.94;;;5.38;76.57
9538;BME280;4807;48.024;11.726;2023-04-08T12:58:50;95253.94;;;5.11;77.18
9538;BME280;4807;48.024;11.726;2023-04-08T13:01:59;95256.78;;;4.83;78.33
9538;BME280;4807;48.024;11.726;2023-04-08T13:05:09;95249.09;;;4.64;78.37
9538;BME280;4807;48.024;11.726;2023-04-08T13:08:17;95249.25;;;4.63;79.58
9538;BME280;4807;48.024;11.726;2023-04-08T13:11:25;95255.03;;;4.58;80.02
9538;BME280;4807;48.024;11.726;2023-04-08T13:14:35;95250.34;;;4.44;79.27
9538;BME280;4807;48.024;11.726;2023-04-08T13:17:44;95253.69;;;4.54;80.87
9538;BME280;4807;48.024;11.726;2023-04-08T13:20:54;95256.09;;;4.47;80.29
9538;BME280;4807;48.024;11.726;2023-04-08T13:24:04;95265.53;;;4.50;81.77
9538;BME280;4807;48.024;11.726;2023-04-08T13:27:13;95251.09;;;4.62;81.84
9538;BME280;4807;48.024;11.726;2023-04-08T13:30:22;95266.84;;;4.88;82.15
9538;BME280;4807;48.024;11.726;2023-04-08T13:33:31;95260.53;;;5.15;81.27
9538;BME280;4807;48.024;11.726;2023-04-08T13:36:41;95258.78;;;5.40;79.91
9538;BME280;4807;48.024;11.726;2023-04-08T13:39:54;95264.63;;;5.51;79.37
9538;BME280;4807;48.024;11.726;2023-04-08T13:43:03;95265.94;;;5.63;79.36
9538;BME280;4807;48.024;11.726;2023-04-08T13:46:12;95267.28;;;5.67;79.39
9538;BME280;4807;48.024;11.726;2023-04-08T13:49:20;95268.25;;;5.58;79.38
9538;BME280;4807;48.024;11.726;2023-04-08T13:52:31;95274.53;;;5.65;79.10
9538;BME280;4807;48.024;11.726;2023-04-08T13:55:39;95270.84;;;5.34;78.55
9538;BME280;4807;48.024;11.726;2023-04-08T13:58:48;95276.66;;;5.04;79.78
9538;BME280;4807;48.024;11.726;2023-04-08T14:02:03;95274.28;;;4.84;80.44
9538;BME280;4807;48.024;11.726;2023-04-08T14:05:12;95280.84;;;4.80;80.88
9538;BME280;4807;48.024;11.726;2023-04-08T14:08:22;95286.28;;;4.79;80.95
9538;BME280;4807;48.024;11.726;2023-04-08T14:11:31;95285.53;;;4.94;81.46
9538;BME280;4807;48.024;11.726;2023-04-08T14:14:43;95293.69;;;5.09;81.41
9538;BME280;4807;48.024;11.726;2023-04-08T14:17:52;95294.91;;;5.31;80.78
9538;BME280;4807;48.024;11.726;2023-04-08T14:21:01;95300.81;;;5.17;79.82
9538;BME280;4807;48.024;11.726;2023-04-08T14:24:12;95292.84;;;5.09;79.52
9538;BME280;4807;48.024;11.726;2023-04-08T14:27:21;95303.88;;;4.70;81.76
9538;BME280;4807;48.024;11.726;2023-04-08T14:30:30;95305.31;;;4.90;82.90
9538;BME280;4807;48.024;11.726;2023-04-08T14:33:39;95303.72;;;5.06;81.33
9538;BME280;4807;48.024;11.726;2023-04-08T14:36:48;95305.75;;;5.20;81.92
9538;BME280;4807;48.024;11.726;2023-04-08T14:39:58;95306.97;;;4.91;79.93
9538;BME280;4807;48.024;11.726;2023-04-08T14:43:06;95312.09;;;4.67;81.53
9538;BME280;4807;48.024;11.726;2023-04-08T14:46:14;95313.09;;;4.66;82.00
9538;BME280;4807;48.024;11.726;2023-04-08T14:49:23;95311.94;;;4.69;82.68
9538;BME280;4807;48.024;11.726;2023-04-08T14:52:31;95308.97;;;4.72;82.05
9538;BME280;4807;48.024;11.726;2023-04-08T14:55:41;95316.41;;;4.68;81.38
9538;BME280;4807;48.024;11.726;2023-04-08T14:58:49;95320.13;;;4.57;82.09
9538;BME280;4807;48.024;11.726;2023-04-08T15:01:57;95311.84;;;4.52;82.69
9538;BME280;4807;48.024;11.726;2023-04-08T15:05:06;95313.50;;;4.53;81.35
9538;BME280;4807;48.024;11.726;2023-04-08T15:08:15;95315.97;;;4.55;81.95
9538;BME280;4807;48.024;11.726;2023-04-08T15:11:24;95325.13;;;4.69;81.72
9538;BME280;4807;48.024;11.726;2023-04-08T15:14:33;95325.28;;;4.67;81.74
9538;BME280;4807;48.024;11.726;2023-04-08T15:17:41;95330.03;;;4.64;81.59
9538;BME280;4807;48.024;11.726;2023-04-08T15:20:49;95333.56;;;4.72;81.93
9538;BME280;4807;48.024;11.726;2023-04-08T15:23:58;95332.41;;;4.75;81.95
9538;BME280;4807;48.024;11.726;2023-04-08T15:27:07;95335.22;;;4.73;82.37
9538;BME280;4807;48.024;11.726;2023-04-08T15:30:16;95338.53;;;4.75;81.50
9538;BME280;4807;48.024;11.726;2023-04-08T15:33:30;95336.56;;;4.77;81.99
9538;BME280;4807;48.024;11.726;2023-04-08T15:36:38;95340.09;;;4.86;82.51
9538;BME280;4807;48.024;11.726;2023-04-08T15:39:47;95340.78;;;4.96;82.00
9538;BME280;4807;48.024;11.726;2023-04-08T15:42:56;95345.25;;;5.04;81.20
9538;BME280;4807;48.024;11.726;2023-04-08T15:46:04;95340.81;;;5.04;81.36
9538;BME280;4807;48.024;11.726;2023-04-08T15:49:14;95344.09;;;4.98;81.31
9538;BME280;4807;48.024;11.726;2023-04-08T15:52:22;95341.78;;;5.03;81.57
9538;BME280;4807;48.024;11.726;2023-04-08T15:55:36;95341.19;;;5.09;80.68
9538;BME280;4807;48.024;11.726;2023-04-08T15:58:47;95343.47;;;5.04;81.07
9538;BME280;4807;48.024;11.726;2023-04-08T16:01:56;95350.59;;;5.12;80.34
9538;BME280;4807;48.024;11.726;2023-04-08T16:05:05;95345.00;;;5.15;80.78
9538;BME280;4807;48.024;11.726;2023-04-08T16:08:13;95348.78;;;5.12;80.46
9538;BME280;4807;48.024;11.726;2023-04-08T16:11:22;95348.28;;;5.09;80.44
9538;BME280;4807;48.024;11.726;2023-04-08T16:14:32;95350.38;;;5.05;79.74
9538;BME280;4807;48.024;11.726;2023-04-08T16:17:40;95350.19;;;4.98;80.44
9538;BME280;4807;48.024;11.726;2023-04-08T16:20:49;95350.88;;;5.01;81.06
9538;BME280;4807;48.024;11.726;2023-04-08T16:23:57;95366.72;;;5.01;81.69
9538;BME280;4807;48.024;11.726;2023-04-08T16:27:05;95364.41;;;5.06;82.03
9538;BME280;4807;48.024;11.726;2023-04-08T16:30:15;95365.41;;;5.05;81.73
9538;BME280;4807;48.024;11.726;2023-04-08T16:33:24;95360.13;;;5.05;81.59
9538;BME280;4807;48.024;11.726;2023-04-08T16:36:35;95363.69;;;4.95;82.68
9538;BME280;4807;48.024;11.726;2023-04-08T16:39:44;95368.19;;;5.03;81.05
9538;BME280;4807;48.024;11.726;2023-04-08T16:42:52;95372.25;;;4.89;81.73
9538;BME280;4807;48.024;11.726;2023-04-08T16:46:09;95373.59;;;4.93;82.58
9538;BME280;4807;48.024;11.726;2023-04-08T16:49:18;95372.91;;;4.91;82.79
9538;BME280;4807;48.024;11.726;2023-04-08T16:52:26;95377.56;;;4.97;83.10
9538;BME280;4807;48.024;11.726;2023-04-08T16:55:35;95372.44;;;4.96;83.31
9538;BME280;4807;48.024;11.726;2023-04-08T16:58:44;95375.06;;;4.96;83.35
9538;BME280;4807;48.024;11.726;2023-04-08T17:01:53;95379.19;;;4.90;83.61
9538;BME280;4807;48.024;11.726;2023-04-08T17:05:04;95375.84;;;4.88;84.17
9538;BME280;4807;48.024;11.726;2023-04-08T17:08:12;95383.19;;;4.94;83.77
9538;BME280;4807;48.024;11.726;2023-04-08T17:11:20;95378.44;;;4.80;84.29
9538;BME280;4807;48.024;11.726;2023-04-08T17:14:29;95386.09;;;4.66;84.83